sensor_id;sensor_type;location;lat;lon;timestamp;P1;durP1;ratioP1;P2;durP2;ratioP2
36827;SDS011;22766;48.042;11.192;2022-08-19T00:01:23;6.18;;;3.70;;
36827;SDS011;22766;48.042;11.192;2022-08-19T00:04:04;5.93;;;3.40;;
36827;SDS011;22766;48.042;11.192;2022-08-19T00:06:33;7.07;;;4.15;;
36827;SDS011;22766;48.042;11.192;2022-08-19T00:09:02;7.30;;;4.25;;
36827;SDS011;22766;48.042;11.192;2022-08-19T00:11:31;7.90;;;4.45;;
36827;SDS011;22766;48.042;11.192;2022-08-19T00:13:58;8.75;;;4.47;;
36827;SDS011;22766;48.042;11.192;2022-08-19T00:16:25;7.15;;;3.92;;
36827;SDS011;22766;48.042;11.192;2022-08-19T00:18:53;7.68;;;4.47;;
36827;SDS011;22766;48.042;11.192;2022-08-19T00:21:22;8.25;;;4.40;;
36827;SDS011;22766;48.042;11.192;2022-08-19T00:23:51;6.90;;;4.47;;
36827;SDS011;22766;48.042;11.192;2022-08-19T00:26:17;7.13;;;4.32;;
36827;SDS011;22766;48.042;11.192;2022-08-19T00:28:44;7.65;;;4.18;;
36827;SDS011;22766;48.042;11.192;2022-08-19T00:31:11;7.55;;;4.57;;
36827;SDS011;22766;48.042;11.192;2022-08-19T00:33:38;6.28;;;4.00;;
36827;SDS011;22766;48.042;11.192;2022-08-19T00:36:05;9.73;;;4.32;;
36827;SDS011;22766;48.042;11.192;2022-08-19T00:38:34;8.25;;;4.50;;
36827;SDS011;22766;48.042;11.192;2022-08-19T00:41:04;6.90;;;4.40;;
36827;SDS011;22766;48.042;11.192;2022-08-19T00:43:31;6.93;;;4.38;;
36827;SDS011;22766;48.042;11.192;2022-08-19T00:45:59;8.73;;;5.15;;
36827;SDS011;22766;48.042;11.192;2022-08-19T00:48:25;8.32;;;4.32;;
36827;SDS011;22766;48.042;11.192;2022-08-19T00:50:52;9.90;;;4.72;;
36827;SDS011;22766;48.042;11.192;2022-08-19T00:53:22;8.30;;;4.18;;
36827;SDS011;22766;48.042;11.192;2022-08-19T00:55:50;6.75;;;4.35;;
36827;SDS011;22766;48.042;11.192;2022-08-19T00:58:21;6.90;;;4.77;;
36827;SDS011;22766;48.042;11.192;2022-08-19T01:00:54;8.57;;;4.68;;
36827;SDS011;22766;48.042;11.192;2022-08-19T01:03:21;10.45;;;4.50;;
36827;SDS011;22766;48.042;11.192;2022-08-19T01:05:49;6.90;;;4.25;;
36827;SDS011;22766;48.042;11.192;2022-08-19T01:08:18;6.15;;;3.88;;
36827;SDS011;22766;48.042;11.192;2022-08-19T01:10:50;7.75;;;4.18;;
36827;SDS011;22766;48.042;11.192;2022-08-19T01:13:22;8.80;;;4.90;;
36827;SDS011;22766;48.042;11.192;2022-08-19T01:15:52;7.95;;;4.07;;
36827;SDS011;22766;48.042;11.192;2022-08-19T01:18:22;7.32;;;4.22;;
36827;SDS011;22766;48.042;11.192;2022-08-19T01:20:52;7.10;;;4.05;;
36827;SDS011;22766;48.042;11.192;2022-08-19T01:23:22;7.70;;;4.30;;
36827;SDS011;22766;48.042;11.192;2022-08-19T01:26:16;6.97;;;4.07;;
36827;SDS011;22766;48.042;11.192;2022-08-19T01:28:47;10.10;;;4.07;;
36827;SDS011;22766;48.042;11.192;2022-08-19T01:31:19;9.07;;;4.00;;
36827;SDS011;22766;48.042;11.192;2022-08-19T01:33:53;8.23;;;3.55;;
36827;SDS011;22766;48.042;11.192;2022-08-19T01:36:24;6.95;;;3.35;;
36827;SDS011;22766;48.042;11.192;2022-08-19T01:38:54;6.35;;;3.92;;
36827;SDS011;22766;48.042;11.192;2022-08-19T01:41:21;5.38;;;3.30;;
36827;SDS011;22766;48.042;11.192;2022-08-19T01:43:50;6.07;;;3.92;;
36827;SDS011;22766;48.042;11.192;2022-08-19T01:46:38;6.80;;;3.60;;
36827;SDS011;22766;48.042;11.192;2022-08-19T01:49:06;6.38;;;3.92;;
36827;SDS011;22766;48.042;11.192;2022-08-19T01:51:34;6.97;;;3.70;;
36827;SDS011;22766;48.042;11.192;2022-08-19T01:54:06;4.63;;;3.28;;
36827;SDS011;22766;48.042;11.192;2022-08-19T01:56:34;6.90;;;3.50;;
36827;SDS011;22766;48.042;11.192;2022-08-19T01:59:03;7.25;;;3.33;;
36827;SDS011;22766;48.042;11.192;2022-08-19T02:01:35;5.90;;;3.30;;
36827;SDS011;22766;48.042;11.192;2022-08-19T02:04:02;5.30;;;2.97;;
36827;SDS011;22766;48.042;11.192;2022-08-19T02:06:29;5.47;;;3.53;;
36827;SDS011;22766;48.042;11.192;2022-08-19T02:08:56;4.32;;;2.20;;
36827;SDS011;22766;48.042;11.192;2022-08-19T02:11:41;4.72;;;2.88;;
36827;SDS011;22766;48.042;11.192;2022-08-19T02:14:08;4.20;;;2.42;;
36827;SDS011;22766;48.042;11.192;2022-08-19T02:16:35;5.07;;;2.65;;
36827;SDS011;22766;48.042;11.192;2022-08-19T02:19:02;4.30;;;2.80;;
36827;SDS011;22766;48.042;11.192;2022-08-19T02:21:29;3.60;;;2.35;;
36827;SDS011;22766;48.042;11.192;2022-08-19T02:23:56;5.75;;;2.80;;
36827;SDS011;22766;48.042;11.192;2022-08-19T02:26:24;4.65;;;2.75;;
36827;SDS011;22766;48.042;11.192;2022-08-19T02:28:53;4.53;;;2.40;;
36827;SDS011;22766;48.042;11.192;2022-08-19T02:31:22;3.50;;;2.47;;
36827;SDS011;22766;48.042;11.192;2022-08-19T02:33:51;4.57;;;2.53;;
36827;SDS011;22766;48.042;11.192;2022-08-19T02:36:22;3.78;;;2.65;;
36827;SDS011;22766;48.042;11.192;2022-08-19T02:38:50;3.53;;;2.20;;
36827;SDS011;22766;48.042;11.192;2022-08-19T02:41:25;3.55;;;2.22;;
36827;SDS011;22766;48.042;11.192;2022-08-19T02:43:55;5.00;;;2.47;;
36827;SDS011;22766;48.042;11.192;2022-08-19T02:46:47;5.50;;;2.67;;
36827;SDS011;22766;48.042;11.192;2022-08-19T02:49:18;5.93;;;2.65;;
36827;SDS011;22766;48.042;11.192;2022-08-19T02:51:45;4.75;;;2.30;;
36827;SDS011;22766;48.042;11.192;2022-08-19T02:54:12;4.72;;;3.03;;
36827;SDS011;22766;48.042;11.192;2022-08-19T02:56:41;4.28;;;2.80;;
36827;SDS011;22766;48.042;11.192;2022-08-19T02:59:09;3.88;;;2.38;;
36827;SDS011;22766;48.042;11.192;2022-08-19T03:01:39;4.35;;;2.88;;
36827;SDS011;22766;48.042;11.192;2022-08-19T03:04:09;7.35;;;3.13;;
36827;SDS011;22766;48.042;11.192;2022-08-19T03:06:38;5.95;;;2.78;;
36827;SDS011;22766;48.042;11.192;2022-08-19T03:09:07;8.35;;;2.65;;
36827;SDS011;22766;48.042;11.192;2022-08-19T03:11:34;4.20;;;2.63;;
36827;SDS011;22766;48.042;11.192;2022-08-19T03:14:02;5.10;;;2.95;;
36827;SDS011;22766;48.042;11.192;2022-08-19T03:19:01;6.95;;;2.88;;
36827;SDS011;22766;48.042;11.192;2022-08-19T03:21:30;5.90;;;2.83;;
36827;SDS011;22766;48.042;11.192;2022-08-19T03:23:59;4.22;;;2.88;;
36827;SDS011;22766;48.042;11.192;2022-08-19T03:26:28;5.22;;;2.95;;
36827;SDS011;22766;48.042;11.192;2022-08-19T03:28:56;7.22;;;3.60;;
36827;SDS011;22766;48.042;11.192;2022-08-19T03:31:31;4.60;;;2.80;;
36827;SDS011;22766;48.042;11.192;2022-08-19T03:34:20;7.70;;;3.15;;
36827;SDS011;22766;48.042;11.192;2022-08-19T03:36:48;6.95;;;3.00;;
36827;SDS011;22766;48.042;11.192;2022-08-19T03:39:15;8.55;;;3.40;;
36827;SDS011;22766;48.042;11.192;2022-08-19T03:41:43;5.22;;;3.03;;
36827;SDS011;22766;48.042;11.192;2022-08-19T03:47:03;3.85;;;2.33;;
36827;SDS011;22766;48.042;11.192;2022-08-19T03:49:32;8.07;;;3.47;;
36827;SDS011;22766;48.042;11.192;2022-08-19T03:52:02;4.40;;;2.72;;
36827;SDS011;22766;48.042;11.192;2022-08-19T03:54:33;4.72;;;2.55;;
36827;SDS011;22766;48.042;11.192;2022-08-19T03:57:01;6.25;;;3.30;;
36827;SDS011;22766;48.042;11.192;2022-08-19T03:59:30;4.00;;;2.53;;
36827;SDS011;22766;48.042;11.192;2022-08-19T04:02:00;5.35;;;2.33;;
36827;SDS011;22766;48.042;11.192;2022-08-19T04:04:29;5.90;;;2.72;;
36827;SDS011;22766;48.042;11.192;2022-08-19T04:06:57;6.05;;;2.92;;
36827;SDS011;22766;48.042;11.192;2022-08-19T04:09:24;8.45;;;3.65;;
36827;SDS011;22766;48.042;11.192;2022-08-19T04:11:54;5.15;;;2.72;;
36827;SDS011;22766;48.042;11.192;2022-08-19T04:14:23;4.60;;;3.20;;
36827;SDS011;22766;48.042;11.192;2022-08-19T04:16:54;6.20;;;3.67;;
36827;SDS011;22766;48.042;11.192;2022-08-19T04:19:21;6.43;;;3.55;;
36827;SDS011;22766;48.042;11.192;2022-08-19T04:21:50;5.95;;;3.75;;
36827;SDS011;22766;48.042;11.192;2022-08-19T04:24:20;6.97;;;3.88;;
36827;SDS011;22766;48.042;11.192;2022-08-19T04:26:48;9.20;;;4.53;;
36827;SDS011;22766;48.042;11.192;2022-08-19T04:29:19;10.23;;;4.93;;
36827;SDS011;22766;48.042;11.192;2022-08-19T04:31:51;8.93;;;4.47;;
36827;SDS011;22766;48.042;11.192;2022-08-19T04:34:21;5.85;;;3.97;;
36827;SDS011;22766;48.042;11.192;2022-08-19T04:36:51;8.77;;;4.37;;
36827;SDS011;22766;48.042;11.192;2022-08-19T04:39:21;8.00;;;3.65;;
36827;SDS011;22766;48.042;11.192;2022-08-19T04:42:10;8.63;;;4.13;;
36827;SDS011;22766;48.042;11.192;2022-08-19T04:44:56;7.22;;;4.28;;
36827;SDS011;22766;48.042;11.192;2022-08-19T04:47:25;7.15;;;4.35;;
36827;SDS011;22766;48.042;11.192;2022-08-19T04:50:12;7.75;;;4.57;;
36827;SDS011;22766;48.042;11.192;2022-08-19T04:52:39;7.88;;;5.13;;
36827;SDS011;22766;48.042;11.192;2022-08-19T04:55:10;8.05;;;4.63;;
36827;SDS011;22766;48.042;11.192;2022-08-19T04:57:37;7.85;;;4.25;;
36827;SDS011;22766;48.042;11.192;2022-08-19T05:00:07;8.68;;;5.53;;
36827;SDS011;22766;48.042;11.192;2022-08-19T05:02:35;8.63;;;4.85;;
36827;SDS011;22766;48.042;11.192;2022-08-19T05:05:03;7.72;;;4.45;;
36827;SDS011;22766;48.042;11.192;2022-08-19T05:07:30;8.70;;;4.68;;
36827;SDS011;22766;48.042;11.192;2022-08-19T05:09:57;8.32;;;4.63;;
36827;SDS011;22766;48.042;11.192;2022-08-19T05:12:25;12.10;;;6.65;;
36827;SDS011;22766;48.042;11.192;2022-08-19T05:14:54;7.90;;;4.78;;
36827;SDS011;22766;48.042;11.192;2022-08-19T05:17:24;10.05;;;5.10;;
36827;SDS011;22766;48.042;11.192;2022-08-19T05:19:55;9.13;;;5.13;;
36827;SDS011;22766;48.042;11.192;2022-08-19T05:22:42;10.32;;;5.60;;
36827;SDS011;22766;48.042;11.192;2022-08-19T05:25:12;8.77;;;4.35;;
36827;SDS011;22766;48.042;11.192;2022-08-19T05:27:41;12.38;;;5.38;;
36827;SDS011;22766;48.042;11.192;2022-08-19T05:30:09;8.70;;;5.05;;
36827;SDS011;22766;48.042;11.192;2022-08-19T05:32:37;9.68;;;5.70;;
36827;SDS011;22766;48.042;11.192;2022-08-19T05:35:05;11.82;;;5.40;;
36827;SDS011;22766;48.042;11.192;2022-08-19T05:37:33;10.63;;;5.80;;
36827;SDS011;22766;48.042;11.192;2022-08-19T05:40:00;8.27;;;5.30;;
36827;SDS011;22766;48.042;11.192;2022-08-19T05:42:27;10.20;;;5.65;;
36827;SDS011;22766;48.042;11.192;2022-08-19T05:44:54;11.55;;;5.82;;
36827;SDS011;22766;48.042;11.192;2022-08-19T05:47:23;10.05;;;5.03;;
36827;SDS011;22766;48.042;11.192;2022-08-19T05:49:50;10.68;;;5.00;;
36827;SDS011;22766;48.042;11.192;2022-08-19T05:52:18;9.65;;;5.53;;
36827;SDS011;22766;48.042;11.192;2022-08-19T05:54:52;10.43;;;5.40;;
36827;SDS011;22766;48.042;11.192;2022-08-19T05:57:23;9.00;;;4.57;;
36827;SDS011;22766;48.042;11.192;2022-08-19T05:59:50;10.90;;;4.72;;
36827;SDS011;22766;48.042;11.192;2022-08-19T06:02:27;6.85;;;4.75;;
36827;SDS011;22766;48.042;11.192;2022-08-19T06:04:57;9.20;;;4.72;;
36827;SDS011;22766;48.042;11.192;2022-08-19T06:07:24;9.75;;;4.72;;
36827;SDS011;22766;48.042;11.192;2022-08-19T06:09:51;10.88;;;5.35;;
36827;SDS011;22766;48.042;11.192;2022-08-19T06:12:29;9.95;;;4.80;;
36827;SDS011;22766;48.042;11.192;2022-08-19T06:15:00;9.45;;;5.50;;
36827;SDS011;22766;48.042;11.192;2022-08-19T06:17:29;9.13;;;5.95;;
36827;SDS011;22766;48.042;11.192;2022-08-19T06:19:57;10.27;;;6.03;;
36827;SDS011;22766;48.042;11.192;2022-08-19T06:22:25;13.98;;;6.15;;
36827;SDS011;22766;48.042;11.192;2022-08-19T06:24:54;12.40;;;6.28;;
36827;SDS011;22766;48.042;11.192;2022-08-19T06:27:21;9.80;;;6.20;;
36827;SDS011;22766;48.042;11.192;2022-08-19T06:29:49;9.65;;;5.75;;
36827;SDS011;22766;48.042;11.192;2022-08-19T06:32:16;9.85;;;6.15;;
36827;SDS011;22766;48.042;11.192;2022-08-19T06:34:45;11.80;;;6.80;;
36827;SDS011;22766;48.042;11.192;2022-08-19T06:37:13;13.20;;;7.22;;
36827;SDS011;22766;48.042;11.192;2022-08-19T06:39:41;11.45;;;6.07;;
36827;SDS011;22766;48.042;11.192;2022-08-19T06:42:10;15.73;;;6.82;;
36827;SDS011;22766;48.042;11.192;2022-08-19T06:44:40;10.80;;;6.55;;
36827;SDS011;22766;48.042;11.192;2022-08-19T06:47:17;10.73;;;5.65;;
36827;SDS011;22766;48.042;11.192;2022-08-19T06:49:50;10.20;;;6.18;;
36827;SDS011;22766;48.042;11.192;2022-08-19T06:52:19;11.60;;;6.95;;
36827;SDS011;22766;48.042;11.192;2022-08-19T06:54:46;15.90;;;7.88;;
36827;SDS011;22766;48.042;11.192;2022-08-19T06:57:22;17.58;;;8.35;;
36827;SDS011;22766;48.042;11.192;2022-08-19T06:59:51;16.85;;;8.60;;
36827;SDS011;22766;48.042;11.192;2022-08-19T07:02:18;16.77;;;7.43;;
36827;SDS011;22766;48.042;11.192;2022-08-19T07:04:46;20.92;;;9.32;;
36827;SDS011;22766;48.042;11.192;2022-08-19T07:07:19;15.50;;;8.88;;
36827;SDS011;22766;48.042;11.192;2022-08-19T07:09:48;17.90;;;9.15;;
36827;SDS011;22766;48.042;11.192;2022-08-19T07:12:25;16.73;;;8.70;;
36827;SDS011;22766;48.042;11.192;2022-08-19T07:14:56;14.93;;;8.65;;
36827;SDS011;22766;48.042;11.192;2022-08-19T07:17:25;21.13;;;9.23;;
36827;SDS011;22766;48.042;11.192;2022-08-19T07:19:52;15.25;;;8.63;;
36827;SDS011;22766;48.042;11.192;2022-08-19T07:22:20;16.58;;;9.07;;
36827;SDS011;22766;48.042;11.192;2022-08-19T07:24:50;14.88;;;8.43;;
36827;SDS011;22766;48.042;11.192;2022-08-19T07:27:19;18.52;;;8.85;;
36827;SDS011;22766;48.042;11.192;2022-08-19T07:29:50;18.80;;;9.32;;
36827;SDS011;22766;48.042;11.192;2022-08-19T07:32:23;18.23;;;9.23;;
36827;SDS011;22766;48.042;11.192;2022-08-19T07:34:52;19.75;;;10.10;;
36827;SDS011;22766;48.042;11.192;2022-08-19T07:37:20;19.15;;;10.73;;
36827;SDS011;22766;48.042;11.192;2022-08-19T07:39:46;25.20;;;11.25;;
36827;SDS011;22766;48.042;11.192;2022-08-19T07:42:14;25.65;;;10.90;;
36827;SDS011;22766;48.042;11.192;2022-08-19T07:44:41;25.30;;;11.27;;
36827;SDS011;22766;48.042;11.192;2022-08-19T07:47:17;20.58;;;10.20;;
36827;SDS011;22766;48.042;11.192;2022-08-19T07:50:07;21.90;;;11.13;;
36827;SDS011;22766;48.042;11.192;2022-08-19T07:52:38;31.08;;;12.15;;
36827;SDS011;22766;48.042;11.192;2022-08-19T07:55:06;21.75;;;10.32;;
36827;SDS011;22766;48.042;11.192;2022-08-19T07:57:57;21.08;;;11.20;;
36827;SDS011;22766;48.042;11.192;2022-08-19T08:00:24;19.83;;;10.63;;
36827;SDS011;22766;48.042;11.192;2022-08-19T08:02:51;24.95;;;12.02;;
36827;SDS011;22766;48.042;11.192;2022-08-19T08:05:21;23.38;;;11.70;;
36827;SDS011;22766;48.042;11.192;2022-08-19T08:08:10;17.85;;;9.95;;
36827;SDS011;22766;48.042;11.192;2022-08-19T08:10:57;21.88;;;11.05;;
36827;SDS011;22766;48.042;11.192;2022-08-19T08:13:25;17.63;;;9.88;;
36827;SDS011;22766;48.042;11.192;2022-08-19T08:15:56;22.63;;;11.33;;
36827;SDS011;22766;48.042;11.192;2022-08-19T08:18:23;23.30;;;10.73;;
36827;SDS011;22766;48.042;11.192;2022-08-19T08:20:54;25.05;;;11.60;;
36827;SDS011;22766;48.042;11.192;2022-08-19T08:23:22;22.17;;;12.20;;
36827;SDS011;22766;48.042;11.192;2022-08-19T08:25:53;25.25;;;11.63;;
36827;SDS011;22766;48.042;11.192;2022-08-19T08:28:23;23.85;;;12.35;;
36827;SDS011;22766;48.042;11.192;2022-08-19T08:30:55;25.65;;;11.90;;
36827;SDS011;22766;48.042;11.192;2022-08-19T08:33:24;22.13;;;11.35;;
36827;SDS011;22766;48.042;11.192;2022-08-19T08:36:06;23.35;;;11.50;;
36827;SDS011;22766;48.042;11.192;2022-08-19T08:38:34;21.42;;;10.75;;
36827;SDS011;22766;48.042;11.192;2022-08-19T08:44:00;25.08;;;11.98;;
36827;SDS011;22766;48.042;11.192;2022-08-19T08:46:34;27.80;;;12.05;;
36827;SDS011;22766;48.042;11.192;2022-08-19T08:49:06;24.58;;;11.82;;
36827;SDS011;22766;48.042;11.192;2022-08-19T08:51:51;20.08;;;11.57;;
36827;SDS011;22766;48.042;11.192;2022-08-19T08:54:37;23.70;;;11.52;;
36827;SDS011;22766;48.042;11.192;2022-08-19T09:00:24;23.73;;;11.35;;
36827;SDS011;22766;48.042;11.192;2022-08-19T09:02:56;24.27;;;11.02;;
36827;SDS011;22766;48.042;11.192;2022-08-19T09:05:29;23.08;;;10.48;;
36827;SDS011;22766;48.042;11.192;2022-08-19T09:08:27;24.13;;;10.93;;
36827;SDS011;22766;48.042;11.192;2022-08-19T09:11:08;21.40;;;10.40;;
36827;SDS011;22766;48.042;11.192;2022-08-19T09:17:16;23.52;;;9.95;;
36827;SDS011;22766;48.042;11.192;2022-08-19T09:19:56;21.38;;;9.48;;
36827;SDS011;22766;48.042;11.192;2022-08-19T09:22:37;18.13;;;8.63;;
36827;SDS011;22766;48.042;11.192;2022-08-19T09:25:06;17.73;;;9.00;;
36827;SDS011;22766;48.042;11.192;2022-08-19T09:27:35;16.77;;;8.80;;
36827;SDS011;22766;48.042;11.192;2022-08-19T09:30:16;17.65;;;8.13;;
36827;SDS011;22766;48.042;11.192;2022-08-19T09:32:47;19.00;;;8.55;;
36827;SDS011;22766;48.042;11.192;2022-08-19T09:35:18;17.58;;;8.18;;
36827;SDS011;22766;48.042;11.192;2022-08-19T09:37:50;13.70;;;7.32;;
36827;SDS011;22766;48.042;11.192;2022-08-19T09:40:25;14.85;;;7.85;;
36827;SDS011;22766;48.042;11.192;2022-08-19T09:43:03;15.90;;;8.85;;
36827;SDS011;22766;48.042;11.192;2022-08-19T09:45:36;16.05;;;8.00;;
36827;SDS011;22766;48.042;11.192;2022-08-19T09:48:03;15.73;;;7.20;;
36827;SDS011;22766;48.042;11.192;2022-08-19T09:50:32;13.85;;;8.25;;
36827;SDS011;22766;48.042;11.192;2022-08-19T09:53:17;15.20;;;7.57;;
36827;SDS011;22766;48.042;11.192;2022-08-19T09:55:44;17.27;;;8.70;;
36827;SDS011;22766;48.042;11.192;2022-08-19T09:58:11;15.15;;;8.00;;
36827;SDS011;22766;48.042;11.192;2022-08-19T10:00:40;16.60;;;7.57;;
36827;SDS011;22766;48.042;11.192;2022-08-19T10:03:07;15.43;;;8.40;;
36827;SDS011;22766;48.042;11.192;2022-08-19T10:05:34;17.35;;;8.95;;
36827;SDS011;22766;48.042;11.192;2022-08-19T10:08:28;17.30;;;9.55;;
36827;SDS011;22766;48.042;11.192;2022-08-19T10:10:58;21.13;;;9.18;;
36827;SDS011;22766;48.042;11.192;2022-08-19T10:13:46;25.75;;;11.93;;
36827;SDS011;22766;48.042;11.192;2022-08-19T10:16:15;21.35;;;10.52;;
36827;SDS011;22766;48.042;11.192;2022-08-19T10:18:46;18.45;;;9.45;;
36827;SDS011;22766;48.042;11.192;2022-08-19T10:21:19;20.23;;;10.20;;
36827;SDS011;22766;48.042;11.192;2022-08-19T10:23:51;22.00;;;10.38;;
36827;SDS011;22766;48.042;11.192;2022-08-19T10:26:22;20.45;;;10.50;;
36827;SDS011;22766;48.042;11.192;2022-08-19T10:28:52;18.58;;;9.75;;
36827;SDS011;22766;48.042;11.192;2022-08-19T10:31:26;25.27;;;11.35;;
36827;SDS011;22766;48.042;11.192;2022-08-19T10:34:15;26.17;;;12.13;;
36827;SDS011;22766;48.042;11.192;2022-08-19T10:36:52;25.77;;;12.23;;
36827;SDS011;22766;48.042;11.192;2022-08-19T10:39:26;21.98;;;10.98;;
36827;SDS011;22766;48.042;11.192;2022-08-19T10:41:56;22.35;;;10.90;;
36827;SDS011;22766;48.042;11.192;2022-08-19T10:44:24;23.52;;;11.73;;
36827;SDS011;22766;48.042;11.192;2022-08-19T10:46:58;25.25;;;10.85;;
36827;SDS011;22766;48.042;11.192;2022-08-19T10:49:25;20.60;;;10.23;;
36827;SDS011;22766;48.042;11.192;2022-08-19T10:51:53;21.90;;;9.98;;
36827;SDS011;22766;48.042;11.192;2022-08-19T10:54:46;21.05;;;9.55;;
36827;SDS011;22766;48.042;11.192;2022-08-19T10:57:33;13.52;;;6.80;;
36827;SDS011;22766;48.042;11.192;2022-08-19T11:00:21;13.98;;;7.72;;
36827;SDS011;22766;48.042;11.192;2022-08-19T11:02:50;13.60;;;6.55;;
36827;SDS011;22766;48.042;11.192;2022-08-19T11:05:18;15.65;;;7.68;;
36827;SDS011;22766;48.042;11.192;2022-08-19T11:07:51;13.00;;;6.88;;
36827;SDS011;22766;48.042;11.192;2022-08-19T11:10:19;15.20;;;7.95;;
36827;SDS011;22766;48.042;11.192;2022-08-19T11:12:47;11.65;;;6.85;;
36827;SDS011;22766;48.042;11.192;2022-08-19T11:15:15;16.35;;;8.25;;
36827;SDS011;22766;48.042;11.192;2022-08-19T11:17:42;13.75;;;7.00;;
36827;SDS011;22766;48.042;11.192;2022-08-19T11:20:13;12.55;;;6.47;;
36827;SDS011;22766;48.042;11.192;2022-08-19T11:22:41;11.20;;;6.07;;
36827;SDS011;22766;48.042;11.192;2022-08-19T11:25:09;11.18;;;4.82;;
36827;SDS011;22766;48.042;11.192;2022-08-19T11:27:38;6.30;;;4.03;;
36827;SDS011;22766;48.042;11.192;2022-08-19T11:30:09;6.95;;;3.33;;
36827;SDS011;22766;48.042;11.192;2022-08-19T11:32:39;7.70;;;3.58;;
36827;SDS011;22766;48.042;11.192;2022-08-19T11:35:13;6.80;;;3.55;;
36827;SDS011;22766;48.042;11.192;2022-08-19T11:37:42;5.53;;;3.45;;
36827;SDS011;22766;48.042;11.192;2022-08-19T11:40:08;4.88;;;2.95;;
36827;SDS011;22766;48.042;11.192;2022-08-19T11:42:36;4.10;;;2.38;;
36827;SDS011;22766;48.042;11.192;2022-08-19T11:45:25;4.20;;;2.42;;
36827;SDS011;22766;48.042;11.192;2022-08-19T11:47:54;4.00;;;2.38;;
36827;SDS011;22766;48.042;11.192;2022-08-19T11:50:23;3.13;;;1.73;;
36827;SDS011;22766;48.042;11.192;2022-08-19T11:52:53;2.97;;;1.70;;
36827;SDS011;22766;48.042;11.192;2022-08-19T11:55:21;3.53;;;1.92;;
36827;SDS011;22766;48.042;11.192;2022-08-19T11:57:48;3.80;;;1.88;;
36827;SDS011;22766;48.042;11.192;2022-08-19T12:00:17;3.15;;;1.73;;
36827;SDS011;22766;48.042;11.192;2022-08-19T12:02:44;2.67;;;1.40;;
36827;SDS011;22766;48.042;11.192;2022-08-19T12:05:11;2.05;;;1.40;;
36827;SDS011;22766;48.042;11.192;2022-08-19T12:07:39;2.00;;;1.00;;
36827;SDS011;22766;48.042;11.192;2022-08-19T12:10:10;1.42;;;1.05;;
36827;SDS011;22766;48.042;11.192;2022-08-19T12:12:37;2.08;;;0.98;;
36827;SDS011;22766;48.042;11.192;2022-08-19T12:15:12;1.08;;;0.77;;
36827;SDS011;22766;48.042;11.192;2022-08-19T12:17:42;1.00;;;0.80;;
36827;SDS011;22766;48.042;11.192;2022-08-19T12:20:09;0.88;;;0.57;;
36827;SDS011;22766;48.042;11.192;2022-08-19T12:22:37;1.52;;;0.90;;
36827;SDS011;22766;48.042;11.192;2022-08-19T12:25:04;1.23;;;0.70;;
36827;SDS011;22766;48.042;11.192;2022-08-19T12:27:32;1.80;;;1.10;;
36827;SDS011;22766;48.042;11.192;2022-08-19T12:30:07;1.20;;;0.88;;
36827;SDS011;22766;48.042;11.192;2022-08-19T12:32:37;1.50;;;1.10;;
36827;SDS011;22766;48.042;11.192;2022-08-19T12:35:04;1.02;;;0.77;;
36827;SDS011;22766;48.042;11.192;2022-08-19T12:37:33;0.90;;;0.75;;
36827;SDS011;22766;48.042;11.192;2022-08-19T12:40:00;1.50;;;0.98;;
36827;SDS011;22766;48.042;11.192;2022-08-19T12:42:30;2.17;;;0.98;;
36827;SDS011;22766;48.042;11.192;2022-08-19T12:44:57;1.73;;;1.10;;
36827;SDS011;22766;48.042;11.192;2022-08-19T12:47:23;3.47;;;1.10;;
36827;SDS011;22766;48.042;11.192;2022-08-19T12:49:52;1.27;;;0.88;;
36827;SDS011;22766;48.042;11.192;2022-08-19T12:52:22;1.52;;;1.10;;
36827;SDS011;22766;48.042;11.192;2022-08-19T12:54:50;2.08;;;1.13;;
36827;SDS011;22766;48.042;11.192;2022-08-19T12:57:20;1.87;;;1.30;;
36827;SDS011;22766;48.042;11.192;2022-08-19T12:59:59;1.90;;;1.23;;
36827;SDS011;22766;48.042;11.192;2022-08-19T13:02:30;4.43;;;1.23;;
36827;SDS011;22766;48.042;11.192;2022-08-19T13:05:04;1.98;;;1.17;;
36827;SDS011;22766;48.042;11.192;2022-08-19T13:07:34;2.35;;;0.88;;
36827;SDS011;22766;48.042;11.192;2022-08-19T13:10:01;1.40;;;0.85;;
36827;SDS011;22766;48.042;11.192;2022-08-19T13:12:29;1.30;;;0.77;;
36827;SDS011;22766;48.042;11.192;2022-08-19T13:14:56;2.17;;;1.00;;
36827;SDS011;22766;48.042;11.192;2022-08-19T13:17:23;1.63;;;0.93;;
36827;SDS011;22766;48.042;11.192;2022-08-19T13:19:50;1.40;;;1.10;;
36827;SDS011;22766;48.042;11.192;2022-08-19T13:22:17;1.23;;;0.80;;
36827;SDS011;22766;48.042;11.192;2022-08-19T13:24:44;1.58;;;0.82;;
36827;SDS011;22766;48.042;11.192;2022-08-19T13:27:13;1.52;;;0.80;;
36827;SDS011;22766;48.042;11.192;2022-08-19T13:29:41;3.63;;;0.75;;
36827;SDS011;22766;48.042;11.192;2022-08-19T13:32:26;2.42;;;0.55;;
36827;SDS011;22766;48.042;11.192;2022-08-19T13:35:14;1.10;;;0.65;;
36827;SDS011;22766;48.042;11.192;2022-08-19T13:37:42;2.40;;;0.40;;
36827;SDS011;22766;48.042;11.192;2022-08-19T13:40:15;0.55;;;0.40;;
36827;SDS011;22766;48.042;11.192;2022-08-19T13:42:46;1.95;;;0.60;;
36827;SDS011;22766;48.042;11.192;2022-08-19T13:45:15;0.80;;;0.43;;
36827;SDS011;22766;48.042;11.192;2022-08-19T13:47:48;0.50;;;0.30;;
36827;SDS011;22766;48.042;11.192;2022-08-19T13:50:22;0.60;;;0.40;;
36827;SDS011;22766;48.042;11.192;2022-08-19T13:55:19;1.40;;;0.50;;
36827;SDS011;22766;48.042;11.192;2022-08-19T13:57:54;0.63;;;0.50;;
36827;SDS011;22766;48.042;11.192;2022-08-19T14:00:23;1.85;;;0.40;;
36827;SDS011;22766;48.042;11.192;2022-08-19T14:02:55;0.50;;;0.40;;
36827;SDS011;22766;48.042;11.192;2022-08-19T14:05:23;0.80;;;0.40;;
36827;SDS011;22766;48.042;11.192;2022-08-19T14:07:52;0.57;;;0.40;;
36827;SDS011;22766;48.042;11.192;2022-08-19T14:10:20;1.27;;;0.60;;
36827;SDS011;22766;48.042;11.192;2022-08-19T14:12:47;0.80;;;0.60;;
36827;SDS011;22766;48.042;11.192;2022-08-19T14:15:18;0.98;;;0.50;;
36827;SDS011;22766;48.042;11.192;2022-08-19T14:17:45;1.50;;;0.80;;
36827;SDS011;22766;48.042;11.192;2022-08-19T14:20:15;1.70;;;1.00;;
36827;SDS011;22766;48.042;11.192;2022-08-19T14:22:44;1.02;;;0.75;;
36827;SDS011;22766;48.042;11.192;2022-08-19T14:25:17;1.10;;;0.88;;
36827;SDS011;22766;48.042;11.192;2022-08-19T14:27:47;1.50;;;0.90;;
36827;SDS011;22766;48.042;11.192;2022-08-19T14:30:16;1.13;;;0.80;;
36827;SDS011;22766;48.042;11.192;2022-08-19T14:32:48;1.65;;;0.93;;
36827;SDS011;22766;48.042;11.192;2022-08-19T14:35:15;1.20;;;0.87;;
36827;SDS011;22766;48.042;11.192;2022-08-19T14:37:43;1.55;;;0.98;;
36827;SDS011;22766;48.042;11.192;2022-08-19T14:40:13;1.25;;;0.82;;
36827;SDS011;22766;48.042;11.192;2022-08-19T14:42:42;1.17;;;0.80;;
36827;SDS011;22766;48.042;11.192;2022-08-19T14:45:10;1.42;;;0.95;;
36827;SDS011;22766;48.042;11.192;2022-08-19T14:50:13;1.52;;;0.68;;
36827;SDS011;22766;48.042;11.192;2022-08-19T14:52:44;1.23;;;0.80;;
36827;SDS011;22766;48.042;11.192;2022-08-19T14:55:14;1.20;;;0.63;;
36827;SDS011;22766;48.042;11.192;2022-08-19T14:57:42;0.82;;;0.50;;
36827;SDS011;22766;48.042;11.192;2022-08-19T15:00:10;1.15;;;0.77;;
36827;SDS011;22766;48.042;11.192;2022-08-19T15:02:39;1.08;;;0.60;;
36827;SDS011;22766;48.042;11.192;2022-08-19T15:05:07;1.20;;;0.70;;
36827;SDS011;22766;48.042;11.192;2022-08-19T15:07:34;1.27;;;0.77;;
36827;SDS011;22766;48.042;11.192;2022-08-19T15:10:02;1.60;;;0.90;;